createdAt,value
2022-12-27T00:01:02.848Z,80.80
2022-12-27T00:05:12.431Z,81.06
2022-12-27T00:09:19.892Z,81.06
2022-12-27T00:13:27.907Z,81.03
2022-12-27T00:17:36.692Z,81.44
2022-12-27T00:21:44.371Z,81.40
2022-12-27T00:25:52.664Z,81.64
2022-12-27T00:30:03.085Z,82.26
2022-12-27T00:34:11.043Z,83.47
2022-12-27T00:38:18.955Z,83.81
2022-12-27T00:42:27.178Z,84.21
2022-12-27T00:46:35.349Z,84.17
2022-12-27T00:50:44.675Z,84.30
2022-12-27T00:54:52.528Z,84.55
2022-12-27T00:59:04.556Z,84.94
2022-12-27T01:03:13.588Z,85.28
2022-12-27T01:07:22.119Z,85.40
2022-12-27T01:11:29.698Z,85.00
2022-12-27T01:15:37.779Z,84.69
2022-12-27T01:19:46.148Z,84.60
2022-12-27T01:23:55.547Z,84.54
2022-12-27T01:28:03.889Z,84.87
2022-12-27T01:32:12.543Z,84.66
2022-12-27T01:36:23.185Z,84.60
2022-12-27T01:40:30.911Z,84.58
2022-12-27T01:44:59.585Z,84.61
2022-12-27T01:49:09.218Z,84.54
2022-12-27T01:53:20.823Z,84.43
2022-12-27T01:57:29.235Z,84.14
2022-12-27T02:01:39.729Z,83.76
2022-12-27T02:05:47.683Z,83.43
2022-12-27T02:09:58.436Z,82.33
2022-12-27T02:14:06.748Z,82.33
2022-12-27T02:18:15.230Z,81.57
2022-12-27T02:23:08.244Z,81.43
2022-12-27T02:27:24.649Z,81.20
2022-12-27T02:31:36.348Z,81.21
2022-12-27T02:35:46.889Z,80.89
2022-12-27T02:39:57.513Z,81.04
2022-12-27T02:44:34.326Z,81.06
2022-12-27T02:49:09.168Z,81.26
2022-12-27T02:53:23.923Z,81.53
2022-12-27T02:57:39.660Z,81.58
2022-12-27T03:02:11.941Z,81.25
2022-12-27T03:06:46.759Z,81.44
2022-12-27T03:11:17.096Z,81.31
2022-12-27T03:15:52.056Z,81.58
2022-12-27T03:20:19.716Z,81.61
2022-12-27T03:24:47.651Z,81.32
2022-12-27T03:29:15.569Z,81.17
2022-12-27T03:33:24.543Z,81.65
2022-12-27T03:37:51.181Z,81.41
2022-12-27T03:42:20.461Z,81.32
2022-12-27T03:46:39.171Z,81.20
2022-12-27T03:50:50.665Z,81.34
2022-12-27T03:54:59.313Z,81.29
2022-12-27T03:59:08.173Z,81.35
2022-12-27T04:03:15.817Z,80.65
2022-12-27T04:07:24.251Z,80.47
2022-12-27T04:11:49.805Z,80.20
2022-12-27T04:16:15.665Z,79.86
2022-12-27T04:20:41.103Z,79.65
2022-12-27T04:25:07.275Z,79.56
2022-12-27T04:29:33.610Z,79.35
2022-12-27T04:33:59.064Z,79.32
2022-12-27T04:38:07.751Z,79.47
2022-12-27T04:42:33.639Z,79.31
2022-12-27T04:46:59.486Z,78.91
2022-12-27T04:51:25.591Z,78.67
2022-12-27T04:55:33.700Z,78.76
2022-12-27T04:59:59.367Z,78.27
2022-12-27T05:04:07.601Z,78.86
2022-12-27T05:08:34.318Z,78.91
2022-12-27T05:12:56.077Z,78.63
2022-12-27T05:17:04.244Z,78.75
2022-12-27T05:21:11.983Z,78.53
2022-12-27T05:25:37.466Z,78.33
2022-12-27T05:29:45.156Z,78.60
2022-12-27T05:33:53.557Z,78.46
2022-12-27T05:38:01.547Z,78.72
2022-12-27T05:42:09.820Z,78.69
2022-12-27T05:46:19.801Z,78.83
2022-12-27T05:50:27.832Z,78.65
2022-12-27T05:54:35.615Z,78.42
2022-12-27T05:58:43.105Z,78.59
2022-12-27T06:02:50.940Z,78.72
2022-12-27T06:06:59.697Z,78.59
2022-12-27T06:11:09.693Z,78.64
2022-12-27T06:15:17.463Z,78.77
2022-12-27T06:19:25.361Z,78.78
2022-12-27T06:23:33.887Z,78.76
2022-12-27T06:27:43.830Z,78.45
2022-12-27T06:31:51.662Z,78.42
2022-12-27T06:36:00.303Z,78.39
2022-12-27T06:40:10.733Z,78.50
2022-12-27T06:44:18.980Z,78.26
2022-12-27T06:48:26.885Z,78.45
2022-12-27T06:52:34.491Z,78.15
2022-12-27T06:56:42.106Z,78.20
2022-12-27T07:00:50.023Z,78.27
2022-12-27T07:04:58.230Z,78.01
2022-12-27T07:09:06.368Z,77.68
2022-12-27T07:13:13.937Z,77.52
2022-12-27T07:17:21.709Z,77.88
2022-12-27T07:21:30.656Z,77.89
2022-12-27T07:25:38.651Z,77.71
2022-12-27T07:29:47.029Z,77.56
2022-12-27T07:33:55.221Z,77.35
2022-12-27T07:38:03.854Z,77.29
2022-12-27T07:42:12.018Z,77.06
2022-12-27T07:46:21.654Z,77.18
2022-12-27T07:50:30.197Z,76.78
2022-12-27T07:54:37.948Z,76.53
2022-12-27T07:58:46.970Z,76.13
2022-12-27T08:02:54.848Z,76.09
2022-12-27T08:07:06.601Z,75.89
2022-12-27T08:11:14.833Z,75.78
2022-12-27T08:15:25.516Z,75.39
2022-12-27T08:19:32.898Z,75.52
2022-12-27T08:23:42.332Z,74.87
2022-12-27T08:27:50.719Z,74.91
2022-12-27T08:31:59.461Z,74.77
2022-12-27T08:40:45.450Z,73.57
2022-12-27T08:44:54.449Z,72.91
2022-12-27T08:49:02.972Z,72.35
2022-12-27T08:53:11.688Z,72.80
2022-12-27T08:57:20.093Z,72.81
2022-12-27T09:01:28.086Z,72.75
2022-12-27T09:05:41.593Z,72.96
2022-12-27T09:09:50.074Z,73.03
2022-12-27T09:13:59.759Z,73.27
2022-12-27T09:18:07.328Z,72.98
2022-12-27T09:22:15.292Z,73.08
2022-12-27T09:26:25.271Z,72.46
2022-12-27T09:30:34.617Z,72.48
2022-12-27T09:34:44.258Z,71.80
2022-12-27T09:38:54.734Z,72.01
2022-12-27T09:43:20.757Z,71.78
2022-12-27T09:47:37.923Z,71.39
2022-12-27T09:51:52.049Z,71.30
2022-12-27T09:56:01.646Z,71.46
2022-12-27T10:00:17.757Z,70.52
2022-12-27T10:04:39.494Z,70.83
2022-12-27T10:08:59.932Z,70.03
2022-12-27T10:13:20.487Z,69.87
2022-12-27T10:17:40.104Z,69.18
2022-12-27T10:22:03.808Z,68.37
2022-12-27T10:26:15.829Z,68.59
2022-12-27T10:30:26.160Z,68.95
2022-12-27T10:34:34.224Z,68.39
2022-12-27T10:38:44.890Z,68.48
2022-12-27T10:43:03.545Z,67.95
2022-12-27T10:47:13.965Z,67.58
2022-12-27T10:51:23.602Z,67.62
2022-12-27T10:55:40.451Z,67.76
2022-12-27T10:59:48.543Z,67.02
2022-12-27T11:04:19.346Z,66.97
2022-12-27T11:08:28.419Z,67.20
2022-12-27T11:12:36.780Z,67.27
2022-12-27T11:16:45.105Z,67.20
2022-12-27T11:20:56.470Z,66.61
2022-12-27T11:25:04.324Z,66.92
2022-12-27T11:29:20.515Z,67.00
2022-12-27T11:33:35.102Z,66.65
2022-12-27T11:37:44.863Z,66.27
2022-12-27T11:41:55.489Z,66.21
2022-12-27T11:46:09.242Z,65.91
2022-12-27T11:50:55.676Z,66.07
2022-12-27T11:55:46.687Z,66.00
2022-12-27T12:00:03.995Z,65.73
2022-12-27T12:04:34.496Z,66.10
2022-12-27T12:08:56.348Z,65.84
2022-12-27T12:13:17.225Z,65.54
2022-12-27T12:17:45.015Z,65.76
2022-12-27T12:22:03.279Z,65.06
2022-12-27T12:26:15.961Z,64.63
2022-12-27T12:30:56.124Z,65.38
2022-12-27T12:35:29.594Z,64.87
2022-12-27T12:39:53.674Z,64.80
2022-12-27T12:44:22.102Z,64.67
2022-12-27T12:48:51.654Z,64.36
2022-12-27T12:53:22.896Z,64.58
2022-12-27T12:57:43.113Z,64.06
2022-12-27T13:02:00.834Z,64.41
2022-12-27T13:06:21.270Z,65.03
2022-12-27T13:11:13.527Z,65.03
2022-12-27T13:15:30.985Z,65.82
2022-12-27T13:20:08.232Z,66.26
2022-12-27T13:24:26.272Z,66.26
2022-12-27T13:28:48.406Z,66.40
2022-12-27T13:33:11.710Z,66.65
2022-12-27T13:37:27.376Z,66.78
2022-12-27T13:41:44.729Z,66.68
2022-12-27T13:46:02.469Z,66.96
2022-12-27T13:50:38.500Z,66.96
2022-12-27T13:55:07.612Z,66.39
2022-12-27T13:59:43.426Z,66.87
2022-12-27T14:03:59.891Z,66.80
2022-12-27T14:08:16.541Z,66.87
2022-12-27T14:12:49.510Z,66.93
2022-12-27T14:17:09.554Z,67.43
2022-12-27T14:21:39.485Z,67.37
2022-12-27T14:26:09.974Z,67.81
2022-12-27T14:30:41.314Z,67.59
2022-12-27T14:35:18.541Z,68.16
2022-12-27T14:40:04.629Z,68.22
2022-12-27T14:44:46.251Z,68.85
2022-12-27T14:49:14.972Z,68.94
2022-12-27T14:53:41.290Z,69.04
2022-12-27T14:57:57.754Z,69.34
2022-12-27T15:02:20.716Z,69.50
2022-12-27T15:06:44.535Z,69.64
2022-12-27T15:11:03.304Z,69.89
2022-12-27T15:15:21.588Z,70.21
2022-12-27T15:19:40.413Z,70.23
2022-12-27T15:23:53.509Z,70.30
2022-12-27T15:28:06.802Z,70.31
2022-12-27T15:32:25.311Z,70.62
2022-12-27T15:36:41.846Z,70.61
2022-12-27T15:41:14.591Z,71.08
2022-12-27T15:45:30.933Z,70.84
2022-12-27T15:49:49.172Z,70.87
2022-12-27T15:54:11.622Z,71.01
2022-12-27T15:58:20.390Z,70.91
2022-12-27T16:02:40.290Z,70.56
2022-12-27T16:06:56.606Z,70.17
2022-12-27T16:11:12.030Z,70.10
2022-12-27T16:15:52.247Z,69.51
2022-12-27T16:20:22.292Z,69.56
2022-12-27T16:24:30.585Z,69.54
2022-12-27T16:28:38.895Z,69.15
2022-12-27T16:32:52.856Z,69.06
2022-12-27T16:37:01.986Z,69.11
2022-12-27T16:41:18.977Z,69.42
2022-12-27T16:45:33.903Z,69.47
2022-12-27T16:50:01.048Z,69.01
2022-12-27T16:54:23.449Z,69.34
2022-12-27T16:58:38.859Z,69.34
2022-12-27T17:02:47.982Z,69.46
2022-12-27T17:07:01.579Z,69.49
2022-12-27T17:11:27.396Z,69.26
2022-12-27T17:15:35.563Z,69.68
2022-12-27T17:19:48.974Z,69.68
2022-12-27T17:23:57.858Z,69.82
2022-12-27T17:28:10.317Z,69.43
2022-12-27T17:32:29.668Z,69.95
2022-12-27T17:36:48.405Z,70.21
2022-12-27T17:41:07.940Z,69.95
2022-12-27T17:45:31.649Z,70.31
2022-12-27T17:49:40.037Z,70.65
2022-12-27T17:54:08.220Z,70.53
2022-12-27T17:58:18.162Z,70.64
2022-12-27T18:02:30.008Z,70.56
2022-12-27T18:06:39.955Z,70.85
2022-12-27T18:10:47.821Z,71.15
2022-12-27T18:14:59.606Z,70.83
2022-12-27T18:19:07.684Z,70.81
2022-12-27T18:23:19.720Z,70.89
2022-12-27T18:27:28.374Z,70.85
2022-12-27T18:31:40.151Z,70.97
2022-12-27T18:35:51.940Z,71.13
2022-12-27T18:40:01.939Z,71.13
2022-12-27T18:44:23.041Z,71.59
2022-12-27T18:48:36.835Z,71.48
2022-12-27T18:52:46.318Z,72.18
2022-12-27T18:56:58.596Z,72.30
2022-12-27T19:01:28.452Z,72.24
2022-12-27T19:05:36.510Z,72.41
2022-12-27T19:09:52.270Z,72.32
2022-12-27T19:14:01.419Z,71.99
2022-12-27T19:18:25.564Z,71.83
2022-12-27T19:22:42.413Z,71.63
2022-12-27T19:26:53.560Z,71.91
2022-12-27T19:31:16.817Z,72.09
2022-12-27T19:35:25.036Z,72.21
2022-12-27T19:39:35.131Z,72.40
2022-12-27T19:43:44.657Z,72.69
2022-12-27T19:47:54.338Z,72.94
2022-12-27T19:52:03.302Z,72.75
2022-12-27T19:56:12.508Z,72.64
2022-12-27T20:00:22.144Z,72.31
2022-12-27T20:04:30.845Z,72.18
2022-12-27T20:08:42.052Z,72.39
2022-12-27T20:12:50.269Z,72.34
2022-12-27T20:16:58.524Z,72.88
2022-12-27T20:21:06.443Z,72.91
2022-12-27T20:25:14.883Z,73.04
2022-12-27T20:29:23.419Z,72.98
2022-12-27T20:33:32.011Z,73.15
2022-12-27T20:37:41.113Z,73.25
2022-12-27T20:41:48.618Z,73.18
2022-12-27T20:45:56.485Z,73.26
2022-12-27T20:50:04.499Z,73.54
2022-12-27T20:54:16.661Z,73.78
2022-12-27T20:58:24.918Z,73.68
2022-12-27T21:02:33.706Z,73.97
2022-12-27T21:06:41.870Z,73.90
2022-12-27T21:10:50.123Z,73.40
2022-12-27T21:14:58.907Z,73.55
2022-12-27T21:19:07.044Z,73.75
2022-12-27T21:23:14.901Z,73.74
2022-12-27T21:27:24.710Z,74.24
2022-12-27T21:31:33.585Z,74.24
2022-12-27T21:35:41.658Z,74.24
2022-12-27T21:39:49.739Z,74.25
2022-12-27T21:43:57.959Z,74.12
2022-12-27T21:48:06.208Z,74.10
2022-12-27T21:52:13.681Z,74.22
2022-12-27T21:56:22.065Z,74.04
2022-12-27T22:00:29.341Z,74.04
2022-12-27T22:04:37.162Z,74.20
2022-12-27T22:08:47.193Z,74.30
2022-12-27T22:12:55.620Z,74.48
2022-12-27T22:17:03.779Z,74.31
2022-12-27T22:21:12.919Z,74.63
2022-12-27T22:25:20.839Z,74.85
2022-12-27T22:29:33.322Z,74.55
2022-12-27T22:33:44.618Z,74.43
2022-12-27T22:37:52.355Z,74.50
2022-12-27T22:42:00.581Z,74.60
2022-12-27T22:46:11.509Z,74.41
2022-12-27T22:50:19.671Z,74.67
2022-12-27T22:55:04.140Z,74.70
2022-12-27T22:58:55.908Z,74.66
2022-12-27T23:03:04.292Z,74.66
2022-12-27T23:07:12.481Z,74.77
2022-12-27T23:11:22.451Z,74.87
2022-12-27T23:15:30.430Z,74.73
2022-12-27T23:19:38.028Z,75.02
2022-12-27T23:23:46.051Z,75.28
2022-12-27T23:27:53.919Z,75.46
2022-12-27T23:32:01.505Z,75.19
2022-12-27T23:36:09.908Z,75.22
2022-12-27T23:40:17.929Z,75.38
2022-12-27T23:44:33.102Z,75.32
2022-12-27T23:48:43.237Z,75.39
2022-12-27T23:52:50.757Z,75.25
2022-12-27T23:56:58.666Z,75.22
